createdAt,value
2023-02-04T00:00:22.867Z,3.80
2023-02-04T00:02:50.444Z,3.97
2023-02-04T00:05:18.729Z,3.90
2023-02-04T00:07:45.461Z,4.05
2023-02-04T00:10:12.339Z,4.15
2023-02-04T00:12:39.449Z,3.53
2023-02-04T00:15:06.756Z,4.07
2023-02-04T00:17:33.575Z,3.90
2023-02-04T00:20:00.321Z,3.67
2023-02-04T00:22:29.048Z,3.53
2023-02-04T00:24:56.016Z,3.00
2023-02-04T00:27:23.395Z,3.75
2023-02-04T00:29:50.171Z,3.08
2023-02-04T00:32:17.019Z,3.03
2023-02-04T00:34:43.883Z,2.88
2023-02-04T00:37:10.552Z,3.20
2023-02-04T00:39:38.321Z,3.42
2023-02-04T00:42:06.390Z,2.90
2023-02-04T00:44:36.655Z,3.05
2023-02-04T00:47:04.167Z,2.97
2023-02-04T00:49:30.992Z,2.97
2023-02-04T00:51:57.918Z,3.17
2023-02-04T00:54:26.012Z,3.10
2023-02-04T00:56:52.665Z,3.38
2023-02-04T00:59:19.487Z,2.72
2023-02-04T01:01:46.316Z,3.13
2023-02-04T01:04:15.074Z,3.22
2023-02-04T01:06:42.124Z,3.13
2023-02-04T01:09:10.160Z,2.58
2023-02-04T01:11:36.886Z,2.75
2023-02-04T01:14:03.636Z,2.60
2023-02-04T01:16:30.402Z,2.20
2023-02-04T01:18:57.201Z,1.73
2023-02-04T01:21:24.633Z,2.13
2023-02-04T01:23:51.787Z,1.80
2023-02-04T01:26:19.768Z,1.98
2023-02-04T01:28:47.478Z,1.80
2023-02-04T01:31:14.870Z,1.83
2023-02-04T01:33:41.818Z,1.63
2023-02-04T01:36:09.108Z,1.88
2023-02-04T01:38:35.781Z,1.77
2023-02-04T01:41:04.116Z,2.47
2023-02-04T01:43:31.656Z,2.10
2023-02-04T01:45:59.124Z,2.58
2023-02-04T01:48:26.137Z,3.10
2023-02-04T01:51:03.920Z,2.88
2023-02-04T01:53:31.403Z,2.60
2023-02-04T01:55:58.130Z,2.83
2023-02-04T01:58:25.331Z,3.38
2023-02-04T02:00:52.110Z,2.58
2023-02-04T02:03:19.074Z,2.47
2023-02-04T02:05:49.690Z,2.35
2023-02-04T02:08:17.103Z,2.22
2023-02-04T02:10:46.895Z,2.13
2023-02-04T02:13:17.542Z,2.25
2023-02-04T02:15:45.141Z,1.92
2023-02-04T02:18:12.847Z,2.13
2023-02-04T02:20:39.757Z,1.98
2023-02-04T02:23:26.571Z,1.92
2023-02-04T02:25:53.565Z,2.03
2023-02-04T02:28:23.282Z,1.60
2023-02-04T02:30:51.201Z,2.00
2023-02-04T02:33:20.200Z,1.90
2023-02-04T02:35:50.655Z,1.75
2023-02-04T02:38:19.181Z,1.73
2023-02-04T02:40:46.610Z,1.58
2023-02-04T02:43:21.770Z,2.13
2023-02-04T02:45:49.401Z,2.10
2023-02-04T02:48:17.240Z,2.17
2023-02-04T02:50:45.253Z,1.92
2023-02-04T02:53:14.161Z,2.22
2023-02-04T02:55:42.362Z,2.35
2023-02-04T02:58:28.572Z,2.53
2023-02-04T03:00:57.475Z,2.70
2023-02-04T03:03:28.301Z,2.38
2023-02-04T03:06:01.363Z,2.53
2023-02-04T03:08:28.753Z,2.63
2023-02-04T03:10:55.835Z,2.70
2023-02-04T03:13:22.913Z,2.83
2023-02-04T03:15:50.042Z,2.85
2023-02-04T03:18:19.527Z,3.30
2023-02-04T03:20:47.452Z,3.05
2023-02-04T03:23:14.197Z,3.00
2023-02-04T03:25:42.011Z,2.75
2023-02-04T03:28:09.477Z,2.85
2023-02-04T03:30:36.708Z,2.63
2023-02-04T03:33:03.615Z,3.33
2023-02-04T03:35:30.272Z,3.67
2023-02-04T03:37:57.001Z,2.65
2023-02-04T03:40:23.582Z,3.20
2023-02-04T03:42:50.326Z,2.45
2023-02-04T03:45:17.060Z,2.85
2023-02-04T03:47:43.730Z,3.08
2023-02-04T03:50:12.443Z,2.80
2023-02-04T03:52:40.013Z,2.92
2023-02-04T03:55:07.215Z,2.72
2023-02-04T03:57:33.905Z,3.03
2023-02-04T04:00:00.539Z,2.58
2023-02-04T04:02:27.310Z,2.83
2023-02-04T04:04:54.027Z,2.67
2023-02-04T04:07:20.638Z,2.42
2023-02-04T04:09:47.242Z,3.30
2023-02-04T04:12:13.874Z,3.17
2023-02-04T04:14:40.486Z,2.92
2023-02-04T04:17:07.189Z,2.88
2023-02-04T04:19:33.858Z,2.83
2023-02-04T04:22:00.509Z,2.85
2023-02-04T04:24:27.131Z,3.17
2023-02-04T04:26:53.826Z,2.70
2023-02-04T04:29:20.431Z,3.00
2023-02-04T04:31:47.164Z,3.85
2023-02-04T04:34:13.988Z,2.85
2023-02-04T04:36:40.755Z,2.75
2023-02-04T04:39:07.396Z,2.30
2023-02-04T04:41:34.101Z,2.33
2023-02-04T04:44:00.778Z,2.60
2023-02-04T04:46:27.489Z,2.28
2023-02-04T04:48:54.096Z,2.05
2023-02-04T04:51:20.801Z,2.20
2023-02-04T04:53:47.437Z,2.42
2023-02-04T04:56:14.096Z,2.55
2023-02-04T04:58:40.771Z,2.80
2023-02-04T05:01:07.512Z,2.15
2023-02-04T05:03:34.307Z,2.45
2023-02-04T05:06:00.958Z,2.10
2023-02-04T05:08:27.623Z,2.00
2023-02-04T05:10:54.256Z,2.03
2023-02-04T05:13:20.980Z,2.33
2023-02-04T05:15:47.604Z,2.70
2023-02-04T05:18:14.243Z,2.13
2023-02-04T05:20:40.877Z,2.53
2023-02-04T05:23:07.572Z,1.92
2023-02-04T05:25:34.289Z,1.92
2023-02-04T05:28:00.959Z,2.13
2023-02-04T05:30:27.662Z,2.10
2023-02-04T05:32:54.496Z,2.17
2023-02-04T05:35:21.178Z,2.10
2023-02-04T05:37:47.997Z,2.05
2023-02-04T05:40:14.671Z,2.33
2023-02-04T05:42:41.973Z,2.05
2023-02-04T05:45:16.518Z,2.03
2023-02-04T05:47:43.181Z,2.15
2023-02-04T05:50:10.240Z,2.88
2023-02-04T05:52:36.907Z,2.00
2023-02-04T05:55:04.360Z,1.70
2023-02-04T05:57:31.003Z,2.20
2023-02-04T05:59:57.662Z,2.17
2023-02-04T06:02:24.488Z,1.92
2023-02-04T06:04:51.823Z,1.73
2023-02-04T06:07:18.508Z,2.03
2023-02-04T06:09:45.330Z,2.35
2023-02-04T06:12:12.060Z,2.13
2023-02-04T06:14:38.677Z,2.00
2023-02-04T06:17:05.378Z,2.05
2023-02-04T06:19:32.084Z,2.25
2023-02-04T06:21:58.792Z,2.03
2023-02-04T06:24:25.434Z,2.35
2023-02-04T06:26:52.042Z,2.22
2023-02-04T06:29:18.734Z,2.67
2023-02-04T06:31:45.442Z,2.42
2023-02-04T06:34:12.281Z,2.35
2023-02-04T06:36:38.877Z,2.28
2023-02-04T06:39:05.534Z,2.17
2023-02-04T06:41:32.150Z,1.98
2023-02-04T06:43:58.804Z,2.05
2023-02-04T06:46:25.471Z,3.05
2023-02-04T06:48:52.173Z,2.10
2023-02-04T06:51:18.819Z,2.05
2023-02-04T06:53:46.086Z,2.60
2023-02-04T06:56:12.848Z,2.28
2023-02-04T06:58:39.628Z,2.33
2023-02-04T07:01:06.502Z,2.10
2023-02-04T07:03:33.273Z,2.47
2023-02-04T07:05:59.893Z,2.70
2023-02-04T07:08:26.639Z,2.30
2023-02-04T07:10:53.309Z,1.90
2023-02-04T07:13:19.960Z,2.10
2023-02-04T07:15:46.673Z,2.08
2023-02-04T07:18:13.338Z,2.25
2023-02-04T07:20:39.973Z,1.98
2023-02-04T07:23:06.616Z,1.60
2023-02-04T07:25:33.246Z,1.90
2023-02-04T07:28:01.840Z,1.52
2023-02-04T07:30:28.621Z,2.15
2023-02-04T07:32:55.339Z,1.95
2023-02-04T07:35:22.009Z,1.70
2023-02-04T07:37:48.638Z,1.65
2023-02-04T07:40:15.439Z,1.75
2023-02-04T07:42:42.228Z,1.88
2023-02-04T07:45:15.058Z,2.13
2023-02-04T07:47:41.753Z,2.05
2023-02-04T07:50:08.730Z,1.98
2023-02-04T07:52:35.418Z,2.20
2023-02-04T07:55:02.107Z,2.10
2023-02-04T07:57:30.100Z,1.73
2023-02-04T07:59:56.854Z,1.83
2023-02-04T08:02:23.746Z,2.22
2023-02-04T08:04:50.425Z,2.20
2023-02-04T08:07:17.081Z,1.92
2023-02-04T08:09:43.786Z,2.13
2023-02-04T08:12:10.522Z,2.15
2023-02-04T08:14:37.552Z,1.83
2023-02-04T08:17:04.286Z,2.38
2023-02-04T08:19:30.904Z,2.28
2023-02-04T08:21:57.526Z,2.00
2023-02-04T08:24:24.173Z,1.98
2023-02-04T08:26:51.826Z,1.73
2023-02-04T08:29:18.567Z,1.77
2023-02-04T08:31:45.285Z,2.17
2023-02-04T08:34:11.973Z,1.60
2023-02-04T08:36:38.634Z,2.22
2023-02-04T08:39:05.386Z,1.67
2023-02-04T08:41:33.575Z,2.30
2023-02-04T08:44:00.237Z,1.60
2023-02-04T08:46:26.978Z,1.83
2023-02-04T08:48:53.718Z,1.77
2023-02-04T08:51:20.438Z,1.73
2023-02-04T08:53:47.146Z,1.60
2023-02-04T08:56:17.964Z,1.50
2023-02-04T08:58:45.225Z,2.08
2023-02-04T09:01:12.438Z,1.48
2023-02-04T09:03:39.691Z,1.85
2023-02-04T09:06:07.458Z,1.67
2023-02-04T09:08:34.240Z,2.03
2023-02-04T09:11:00.913Z,1.88
2023-02-04T09:13:27.946Z,2.88
2023-02-04T09:15:54.594Z,1.85
2023-02-04T09:18:22.551Z,1.95
2023-02-04T09:20:49.663Z,1.70
2023-02-04T09:23:16.543Z,1.60
2023-02-04T09:25:45.225Z,1.88
2023-02-04T09:28:13.424Z,2.20
2023-02-04T09:30:41.140Z,1.70
2023-02-04T09:33:08.975Z,2.13
2023-02-04T09:35:35.646Z,2.00
2023-02-04T09:38:02.433Z,1.77
2023-02-04T09:40:34.749Z,1.95
2023-02-04T09:45:32.694Z,2.08
2023-02-04T09:48:02.481Z,2.25
2023-02-04T09:50:34.574Z,2.03
2023-02-04T09:53:05.340Z,1.58
2023-02-04T09:55:38.338Z,2.03
2023-02-04T09:58:20.473Z,1.35
2023-02-04T10:00:58.259Z,1.98
2023-02-04T10:03:24.983Z,2.25
2023-02-04T10:05:51.803Z,1.90
2023-02-04T10:08:28.411Z,2.22
2023-02-04T10:10:57.840Z,1.58
2023-02-04T10:13:32.946Z,1.65
2023-02-04T10:16:00.943Z,1.98
2023-02-04T10:18:33.978Z,1.90
2023-02-04T10:21:14.809Z,1.75
2023-02-04T10:23:43.901Z,2.33
2023-02-04T10:26:12.476Z,2.35
2023-02-04T10:28:40.295Z,1.30
2023-02-04T10:31:26.552Z,1.88
2023-02-04T10:34:04.626Z,2.33
2023-02-04T10:36:31.573Z,2.03
2023-02-04T10:39:10.268Z,2.05
2023-02-04T10:41:41.315Z,1.60
2023-02-04T10:44:11.929Z,2.10
2023-02-04T10:46:38.890Z,1.83
2023-02-04T10:49:17.406Z,1.70
2023-02-04T10:51:44.043Z,1.75
2023-02-04T10:54:31.411Z,1.80
2023-02-04T10:57:22.479Z,2.58
2023-02-04T10:59:55.580Z,1.98
2023-02-04T11:02:22.213Z,1.60
2023-02-04T11:04:48.930Z,1.60
2023-02-04T11:07:15.611Z,1.65
2023-02-04T11:09:43.952Z,1.30
2023-02-04T11:12:36.011Z,1.08
2023-02-04T11:15:03.958Z,1.15
2023-02-04T11:17:32.785Z,1.67
2023-02-04T11:20:00.790Z,1.83
2023-02-04T11:22:43.279Z,1.50
2023-02-04T11:25:33.571Z,2.03
2023-02-04T11:28:00.814Z,1.20
2023-02-04T11:30:33.964Z,1.58
2023-02-04T11:33:06.562Z,1.58
2023-02-04T11:35:33.656Z,1.35
2023-02-04T11:38:00.564Z,1.38
2023-02-04T11:40:35.917Z,1.63
2023-02-04T11:43:14.933Z,2.65
2023-02-04T11:45:42.999Z,1.45
2023-02-04T11:48:15.607Z,1.88
2023-02-04T11:50:42.361Z,1.60
2023-02-04T11:53:12.049Z,1.38
2023-02-04T11:55:47.420Z,1.70
2023-02-04T11:58:17.224Z,1.25
2023-02-04T12:00:44.396Z,1.13
2023-02-04T12:03:22.193Z,1.35
2023-02-04T12:05:49.758Z,1.88
2023-02-04T12:08:22.637Z,1.65
2023-02-04T12:10:59.727Z,1.80
2023-02-04T12:13:29.621Z,1.20
2023-02-04T12:16:05.843Z,1.80
2023-02-04T12:18:34.543Z,1.30
2023-02-04T12:21:02.399Z,1.23
2023-02-04T12:23:30.108Z,1.63
2023-02-04T12:25:57.466Z,1.30
2023-02-04T12:28:25.036Z,1.48
2023-02-04T12:30:51.806Z,1.40
2023-02-04T12:33:18.645Z,1.38
2023-02-04T12:35:45.303Z,2.13
2023-02-04T12:38:12.007Z,1.17
2023-02-04T12:40:38.835Z,1.17
2023-02-04T12:43:06.023Z,1.40
2023-02-04T12:45:33.371Z,1.10
2023-02-04T12:48:00.688Z,1.08
2023-02-04T12:50:27.352Z,0.90
2023-02-04T12:52:56.544Z,1.20
2023-02-04T12:55:25.478Z,1.00
2023-02-04T12:57:52.785Z,1.10
2023-02-04T13:00:20.819Z,1.00
2023-02-04T13:02:48.351Z,1.30
2023-02-04T13:05:16.096Z,1.00
2023-02-04T13:07:42.955Z,1.20
2023-02-04T13:10:10.389Z,0.75
2023-02-04T13:12:37.501Z,1.02
2023-02-04T13:15:05.382Z,0.80
2023-02-04T13:17:32.036Z,1.05
2023-02-04T13:19:58.720Z,0.73
2023-02-04T13:22:25.390Z,0.82
2023-02-04T13:24:52.347Z,0.70
2023-02-04T13:27:19.116Z,0.70
2023-02-04T13:29:45.848Z,0.90
2023-02-04T13:32:12.538Z,0.75
2023-02-04T13:34:39.214Z,0.80
2023-02-04T13:37:06.090Z,0.90
2023-02-04T13:39:32.723Z,0.75
2023-02-04T13:41:59.352Z,0.90
2023-02-04T13:44:26.010Z,0.90
2023-02-04T13:46:52.653Z,0.90
2023-02-04T13:49:19.572Z,1.10
2023-02-04T13:51:46.228Z,0.70
2023-02-04T13:54:13.486Z,1.08
2023-02-04T13:56:41.214Z,1.20
2023-02-04T13:59:08.964Z,1.00
2023-02-04T14:01:35.596Z,0.80
2023-02-04T14:04:02.325Z,0.85
2023-02-04T14:06:33.867Z,0.70
2023-02-04T14:09:04.056Z,1.00
2023-02-04T14:11:30.830Z,0.90
2023-02-04T14:13:57.492Z,1.35
2023-02-04T14:16:24.239Z,1.60
2023-02-04T14:18:50.980Z,0.95
2023-02-04T14:21:17.904Z,1.20
2023-02-04T14:23:44.716Z,0.85
2023-02-04T14:26:11.686Z,1.20
2023-02-04T14:28:38.345Z,0.80
2023-02-04T14:31:05.427Z,0.75
2023-02-04T14:33:32.199Z,0.90
2023-02-04T14:35:58.845Z,1.17
2023-02-04T14:38:30.804Z,0.82
2023-02-04T14:40:58.588Z,0.93
2023-02-04T14:43:25.976Z,1.25
2023-02-04T14:45:53.060Z,0.80
2023-02-04T14:48:19.879Z,1.15
2023-02-04T14:50:46.499Z,1.30
2023-02-04T14:53:13.235Z,0.70
2023-02-04T14:55:39.845Z,0.73
2023-02-04T14:58:06.588Z,1.05
2023-02-04T15:00:33.559Z,0.90
2023-02-04T15:03:00.478Z,0.93
2023-02-04T15:05:27.120Z,0.85
2023-02-04T15:07:53.827Z,0.70
2023-02-04T15:10:21.292Z,0.70
2023-02-04T15:12:49.251Z,0.70
2023-02-04T15:15:16.023Z,0.80
2023-02-04T15:17:42.692Z,2.47
2023-02-04T15:20:09.926Z,1.35
2023-02-04T15:22:36.584Z,1.00
2023-02-04T15:25:03.415Z,1.42
2023-02-04T15:27:30.659Z,0.85
2023-02-04T15:29:57.317Z,1.20
2023-02-04T15:32:23.988Z,0.82
2023-02-04T15:34:50.620Z,0.60
2023-02-04T15:37:17.285Z,0.65
2023-02-04T15:39:43.945Z,0.70
2023-02-04T15:42:11.017Z,1.10
2023-02-04T15:44:38.015Z,0.68
2023-02-04T15:47:06.415Z,0.63
2023-02-04T15:49:33.913Z,0.85
2023-02-04T15:52:02.125Z,0.68
2023-02-04T15:54:28.884Z,0.88
2023-02-04T15:56:55.523Z,0.90
2023-02-04T15:59:22.203Z,0.70
2023-02-04T16:01:49.682Z,0.60
2023-02-04T16:04:16.536Z,0.60
2023-02-04T16:06:53.410Z,0.93
2023-02-04T16:09:23.727Z,0.73
2023-02-04T16:11:50.442Z,0.60
2023-02-04T16:14:17.161Z,0.85
2023-02-04T16:16:43.743Z,0.75
2023-02-04T16:19:10.455Z,0.80
2023-02-04T16:21:37.122Z,0.80
2023-02-04T16:24:03.985Z,0.65
2023-02-04T16:26:32.264Z,0.60
2023-02-04T16:28:59.008Z,0.47
2023-02-04T16:31:25.711Z,0.60
2023-02-04T16:33:52.467Z,0.73
2023-02-04T16:36:19.126Z,0.60
2023-02-04T16:38:45.894Z,0.60
2023-02-04T16:41:14.331Z,0.90
2023-02-04T16:43:41.170Z,0.52
2023-02-04T16:46:07.866Z,0.60
2023-02-04T16:48:36.442Z,0.90
2023-02-04T16:51:03.364Z,0.82
2023-02-04T16:53:30.035Z,0.70
2023-02-04T16:55:56.751Z,1.38
2023-02-04T16:58:23.639Z,1.20
2023-02-04T17:00:50.355Z,0.80
2023-02-04T17:03:17.091Z,1.00
2023-02-04T17:05:43.793Z,1.23
2023-02-04T17:08:13.494Z,1.00
2023-02-04T17:11:00.098Z,0.80
2023-02-04T17:13:26.814Z,0.90
2023-02-04T17:15:59.299Z,0.93
2023-02-04T17:18:30.542Z,0.57
2023-02-04T17:20:57.789Z,0.60
2023-02-04T17:23:26.982Z,0.50
2023-02-04T17:25:53.975Z,0.80
2023-02-04T17:28:20.771Z,0.75
2023-02-04T17:30:47.508Z,1.27
2023-02-04T17:33:14.130Z,1.15
2023-02-04T17:35:40.813Z,1.45
2023-02-04T17:38:07.471Z,1.25
2023-02-04T17:40:34.099Z,1.23
2023-02-04T17:43:00.811Z,1.25
2023-02-04T17:45:27.521Z,1.20
2023-02-04T17:47:54.161Z,1.27
2023-02-04T17:50:20.774Z,0.75
2023-02-04T17:52:47.451Z,1.50
2023-02-04T17:55:24.738Z,1.80
2023-02-04T17:57:51.598Z,1.70
2023-02-04T18:00:21.573Z,1.13
2023-02-04T18:02:50.815Z,1.33
2023-02-04T18:05:20.578Z,1.80
2023-02-04T18:07:56.650Z,1.35
2023-02-04T18:10:32.105Z,1.27
2023-02-04T18:13:04.257Z,1.48
2023-02-04T18:15:32.727Z,1.20
2023-02-04T18:18:14.804Z,0.90
2023-02-04T18:20:41.476Z,1.42
2023-02-04T18:23:15.693Z,1.55
2023-02-04T18:25:42.981Z,1.70
2023-02-04T18:28:21.204Z,2.15
2023-02-04T18:30:52.979Z,2.70
2023-02-04T18:33:25.989Z,2.50
2023-02-04T18:36:00.088Z,1.98
2023-02-04T18:38:30.252Z,2.20
2023-02-04T18:41:27.619Z,2.38
2023-02-04T18:44:02.649Z,1.60
2023-02-04T18:46:36.582Z,2.00
2023-02-04T18:49:06.841Z,1.48
2023-02-04T18:51:38.051Z,2.35
2023-02-04T18:54:25.282Z,1.50
2023-02-04T18:56:53.520Z,1.42
2023-02-04T18:59:21.425Z,1.70
2023-02-04T19:01:48.928Z,1.48
2023-02-04T19:04:24.051Z,1.88
2023-02-04T19:06:54.539Z,1.60
2023-02-04T19:09:32.680Z,1.88
2023-02-04T19:12:13.440Z,2.05
2023-02-04T19:14:42.741Z,1.98
2023-02-04T19:17:29.670Z,2.10
2023-02-04T19:20:02.920Z,2.50
2023-02-04T19:22:35.442Z,2.40
2023-02-04T19:25:37.039Z,2.08
2023-02-04T19:28:26.277Z,2.42
2023-02-04T19:31:00.648Z,1.48
2023-02-04T19:33:33.349Z,1.60
2023-02-04T19:36:19.113Z,1.40
2023-02-04T19:38:48.086Z,1.60
2023-02-04T19:41:28.568Z,1.92
2023-02-04T19:44:10.435Z,1.92
2023-02-04T19:46:37.046Z,1.60
2023-02-04T19:49:25.365Z,1.42
2023-02-04T19:51:55.024Z,1.20
2023-02-04T19:54:36.293Z,1.48
2023-02-04T19:57:18.376Z,1.73
2023-02-04T19:59:44.986Z,1.95
2023-02-04T20:02:33.797Z,5.72
2023-02-04T20:05:00.575Z,10.40
2023-02-04T20:07:29.488Z,10.52
2023-02-04T20:09:58.826Z,7.00
2023-02-04T20:12:28.956Z,6.30
2023-02-04T20:15:02.393Z,4.63
2023-02-04T20:17:45.925Z,6.15
2023-02-04T20:20:29.521Z,6.57
2023-02-04T20:23:25.918Z,7.30
2023-02-04T20:25:53.521Z,7.25
2023-02-04T20:28:36.938Z,7.55
2023-02-04T20:31:16.672Z,6.38
2023-02-04T20:33:53.639Z,5.22
2023-02-04T20:36:26.594Z,4.20
2023-02-04T20:39:16.027Z,3.10
2023-02-04T20:41:42.960Z,2.35
2023-02-04T20:44:16.683Z,2.35
2023-02-04T20:46:44.713Z,2.50
2023-02-04T20:49:25.559Z,2.65
2023-02-04T20:51:59.260Z,2.28
2023-02-04T20:54:30.165Z,1.83
2023-02-04T20:57:14.994Z,1.45
2023-02-04T20:59:42.867Z,1.58
2023-02-04T21:02:21.113Z,1.02
2023-02-04T21:04:53.702Z,1.20
2023-02-04T21:07:22.293Z,1.73
2023-02-04T21:09:49.320Z,1.70
2023-02-04T21:12:16.038Z,1.30
2023-02-04T21:14:43.077Z,1.10
2023-02-04T21:17:09.699Z,1.60
2023-02-04T21:19:37.010Z,2.72
2023-02-04T21:22:03.912Z,2.53
2023-02-04T21:24:31.944Z,2.58
2023-02-04T21:26:59.002Z,2.70
2023-02-04T21:29:26.190Z,2.80
2023-02-04T21:31:54.502Z,2.80
2023-02-04T21:34:21.597Z,2.90
2023-02-04T21:36:48.339Z,1.80
2023-02-04T21:39:15.504Z,2.17
2023-02-04T21:41:42.139Z,1.75
2023-02-04T21:44:08.786Z,1.30
2023-02-04T21:46:35.440Z,1.50
2023-02-04T21:49:03.954Z,2.28
2023-02-04T21:51:30.680Z,1.40
2023-02-04T21:53:57.940Z,1.55
2023-02-04T21:56:24.608Z,2.00
2023-02-04T21:58:52.660Z,2.85
2023-02-04T22:01:19.359Z,1.83
2023-02-04T22:03:46.331Z,1.60
2023-02-04T22:06:13.128Z,1.77
2023-02-04T22:08:39.929Z,1.83
2023-02-04T22:11:06.660Z,2.05
2023-02-04T22:13:33.317Z,2.00
2023-02-04T22:15:59.970Z,1.75
2023-02-04T22:18:27.113Z,1.80
2023-02-04T22:20:53.780Z,2.08
2023-02-04T22:23:20.535Z,3.33
2023-02-04T22:25:47.292Z,3.55
2023-02-04T22:28:13.955Z,3.17
2023-02-04T22:30:40.707Z,4.28
2023-02-04T22:33:07.580Z,3.53
2023-02-04T22:35:36.828Z,3.70
2023-02-04T22:38:03.944Z,4.45
2023-02-04T22:40:30.746Z,4.55
2023-02-04T22:42:57.375Z,3.85
2023-02-04T22:45:24.023Z,3.38
2023-02-04T22:47:50.678Z,4.25
2023-02-04T22:50:17.335Z,4.30
2023-02-04T22:52:44.076Z,4.40
2023-02-04T22:55:11.027Z,5.22
2023-02-04T22:57:37.895Z,5.30
2023-02-04T23:00:09.126Z,4.72
2023-02-04T23:02:35.902Z,4.53
2023-02-04T23:05:03.231Z,4.53
2023-02-04T23:07:30.018Z,4.72
2023-02-04T23:09:56.703Z,4.80
2023-02-04T23:12:23.721Z,5.35
2023-02-04T23:14:50.416Z,5.13
2023-02-04T23:17:18.539Z,5.65
2023-02-04T23:19:45.261Z,4.85
2023-02-04T23:22:13.345Z,4.40
2023-02-04T23:24:40.858Z,5.05
2023-02-04T23:27:08.314Z,3.92
2023-02-04T23:29:37.891Z,5.03
2023-02-04T23:32:04.672Z,3.30
2023-02-04T23:34:32.484Z,2.83
2023-02-04T23:36:59.156Z,3.90
2023-02-04T23:39:25.891Z,4.07
2023-02-04T23:41:52.783Z,4.72
2023-02-04T23:44:19.504Z,4.88
2023-02-04T23:46:46.159Z,3.90
2023-02-04T23:49:12.851Z,4.55
2023-02-04T23:51:39.984Z,3.40
2023-02-04T23:54:07.362Z,3.13
2023-02-04T23:56:34.476Z,2.97
2023-02-04T23:59:01.476Z,3.28
